Time;durP1;ratioP1;P1;durP2;ratioP2;P2;SDS_P1;SDS_P2;PMS_P1;PMS_P2;Temp;Humidity;BMP_temperature;BMP_pressure;BME280_temperature;BME280_humidity;BME280_pressure;Samples;Min_cycle;Max_cycle;Signal;HPM_P1;HPM_P2
2022/04/19 00:01:13;;;;;;;13.23;4.67;;;;;;;8.83;86.41;99418.78;10172100;29;20135;-76
2022/04/19 00:06:14;;;;;;;12.05;4.32;;;;;;;10.18;86.23;99628.22;10172131;29;20087;-76
2022/04/19 00:11:15;;;;;;;22.35;6.15;;;;;;;9.59;86.13;99544.91;10172502;29;20044;-76
2022/04/19 00:16:16;;;;;;;20.17;6.80;;;;;;;9.48;86.08;99532.13;10172918;29;20048;-76
2022/04/19 00:21:18;;;;;;;18.45;6.63;;;;;;;9.75;86.49;99574.91;10172228;29;20059;-76
2022/04/19 00:26:21;;;;;;;18.40;5.88;;;;;;;10.10;86.62;99642.38;10154566;29;20048;-76
2022/04/19 00:31:22;;;;;;;25.77;6.60;;;;;;;10.07;86.98;99610.91;10154913;29;20063;-76
2022/04/19 00:36:24;;;;;;;18.58;6.53;;;;;;;9.92;87.00;99600.28;10171351;29;20040;-76
2022/04/19 00:41:25;;;;;;;20.38;6.75;;;;;;;9.79;87.27;99600.09;10171903;29;20130;-76
2022/04/19 00:46:25;;;;;;;19.30;5.88;;;;;;;9.94;87.78;99637.25;10154242;29;20051;-76
2022/04/19 00:51:28;;;;;;;19.30;4.85;;;;;;;9.69;87.96;99596.84;10172176;29;20060;-76
2022/04/19 00:56:29;;;;;;;20.90;5.57;;;;;;;8.99;87.69;99515.81;10176960;29;20233;-76
2022/04/19 01:01:30;;;;;;;16.42;5.20;;;;;;;9.47;87.82;99577.34;10179127;29;20083;-76
2022/04/19 01:06:31;;;;;;;17.25;4.63;;;;;;;9.74;87.70;99632.44;10177580;29;20048;-76
2022/04/19 01:16:52;;;;;;;16.30;4.93;;;;;;;9.42;88.29;99590.31;10178026;29;20044;-76
2022/04/19 01:21:57;;;;;;;19.23;4.47;;;;;;;9.10;87.94;99555.13;10178090;29;20048;-76
2022/04/19 01:26:58;;;;;;;21.15;5.38;;;;;;;9.45;88.79;99654.41;10160240;29;20098;-76
2022/04/19 01:32:03;;;;;;;21.90;4.40;;;;;;;9.16;88.35;99606.59;10176897;29;20048;-76
2022/04/19 01:37:04;;;;;;;20.92;5.70;;;;;;;8.35;88.45;99502.81;10177800;29;20413;-76
2022/04/19 01:42:06;;;;;;;11.25;5.32;;;;;;;8.70;89.07;99583.53;10176564;29;20119;-76
2022/04/19 01:47:07;;;;;;;22.10;5.93;;;;;;;8.60;89.41;99593.53;10177563;29;20048;-76
2022/04/19 01:52:08;;;;;;;16.67;5.80;;;;;;;8.72;89.72;99663.63;10176818;29;20496;-76
2022/04/19 01:57:09;;;;;;;17.88;5.53;;;;;;;8.66;90.35;99640.50;10176054;29;20044;-76
2022/04/19 02:02:10;;;;;;;20.98;6.15;;;;;;;8.55;90.33;99641.69;10176236;29;20044;-76
2022/04/19 02:07:11;;;;;;;18.90;5.40;;;;;;;7.41;90.43;99463.03;10175635;29;20492;-76
2022/04/19 02:12:12;;;;;;;23.52;5.53;;;;;;;8.17;90.16;99608.91;10175424;29;20118;-76
2022/04/19 02:17:13;;;;;;;17.50;4.70;;;;;;;7.46;89.99;99495.06;10176289;29;20095;-76
2022/04/19 02:22:14;;;;;;;26.67;6.65;;;;;;;8.24;90.19;99646.91;10175362;29;20040;-76
2022/04/19 02:27:15;;;;;;;20.65;5.50;;;;;;;6.99;90.43;99428.94;10169795;29;20420;-76
2022/04/19 02:32:16;;;;;;;14.90;4.82;;;;;;;7.89;90.20;99571.44;10174804;29;20052;-75
2022/04/19 02:37:17;;;;;;;17.00;5.28;;;;;;;8.29;90.64;99647.22;10175063;29;20047;-76
2022/04/19 02:42:18;;;;;;;14.85;5.03;;;;;;;8.29;90.32;99622.59;10174496;29;20103;-75
2022/04/19 02:47:19;;;;;;;17.55;5.63;;;;;;;8.41;90.61;99629.19;10172457;29;20504;-76
2022/04/19 02:52:20;;;;;;;14.02;4.90;;;;;;;8.27;90.92;99563.72;10174079;29;20064;-74
2022/04/19 02:57:21;;;;;;;13.70;4.38;;;;;;;9.21;89.69;99666.00;10173747;29;20528;-76
2022/04/19 03:02:22;;;;;;;17.48;4.47;;;;;;;9.08;89.08;99600.34;10173906;29;20599;-76
2022/04/19 03:07:23;;;;;;;17.90;5.45;;;;;;;9.43;88.91;99623.78;10172174;29;20052;-76
2022/04/19 03:12:23;;;;;;;18.58;4.93;;;;;;;9.96;88.47;99657.28;10174084;29;20083;-76
2022/04/19 03:17:24;;;;;;;14.35;4.25;;;;;;;10.01;87.77;99628.38;10172725;29;20092;-76
2022/04/19 03:27:41;;;;;;;21.70;4.78;;;;;;;10.35;87.24;99628.88;10174070;29;20135;-76
2022/04/19 03:27:46;;;;;;;12.13;4.28;;;;;;;10.79;86.07;99646.59;10172538;29;20552;-76
2022/04/19 03:32:47;;;;;;;14.30;4.43;;;;;;;11.20;85.53;99684.88;10173010;29;20050;-76
2022/04/19 03:37:48;;;;;;;13.00;4.45;;;;;;;11.60;84.28;99700.41;10172681;29;20044;-76
2022/04/19 03:42:49;;;;;;;13.70;4.45;;;;;;;11.13;83.33;99595.44;10172367;29;20548;-76
2022/04/19 03:47:50;;;;;;;15.38;3.88;;;;;;;12.25;82.00;99709.16;10171979;29;20554;-78
2022/04/19 03:52:51;;;;;;;11.02;3.90;;;;;;;12.54;79.69;99676.16;10152304;29;20064;-78
2022/04/19 03:57:51;;;;;;;14.98;3.90;;;;;;;12.98;77.90;99633.09;10133993;29;20064;-77
2022/04/19 04:02:52;;;;;;;10.52;3.80;;;;;;;13.83;76.08;99688.66;10133380;29;20068;-78
2022/04/19 04:07:56;;;;;;;16.50;4.28;;;;;;;14.27;73.08;99674.66;10133802;29;20560;-78
2022/04/19 04:12:59;;;;;;;17.63;4.38;;;;;;;14.22;73.23;99644.25;10133596;29;20092;-78
2022/04/19 04:18:00;;;;;;;11.63;4.28;;;;;;;14.91;72.47;99691.75;10133091;29;20040;-77
2022/04/19 04:23:01;;;;;;;13.93;4.10;;;;;;;13.79;71.30;99469.34;10134454;29;20518;-76
2022/04/19 04:28:02;;;;;;;13.05;4.13;;;;;;;15.46;70.11;99715.34;10132992;29;20049;-77
2022/04/19 04:33:03;;;;;;;15.50;4.30;;;;;;;15.32;69.35;99706.59;10139637;29;20083;-78
2022/04/19 04:38:04;;;;;;;12.02;4.40;;;;;;;15.53;68.64;99724.16;10171844;29;20781;-78
2022/04/19 04:43:05;;;;;;;15.07;4.20;;;;;;;15.27;67.85;99637.63;10174483;29;20135;-78
2022/04/19 04:53:25;;;;;;;14.35;3.90;;;;;;;15.64;66.74;99728.81;10172355;29;20064;-76
2022/04/19 04:58:26;;;;;;;16.15;4.25;;;;;;;15.45;67.22;99741.28;10151300;29;20134;-75
2022/04/19 05:03:27;;;;;;;22.50;4.50;;;;;;;14.67;67.59;99630.97;10175997;29;20040;-76
2022/04/19 05:08:28;;;;;;;17.08;4.28;;;;;;;15.32;67.38;99725.31;10175971;29;20099;-76
2022/04/19 05:13:29;;;;;;;17.25;4.65;;;;;;;15.34;67.33;99728.56;10175828;29;20055;-76
2022/04/19 05:18:32;;;;;;;13.60;4.38;;;;;;;13.93;66.79;99494.13;10175050;29;20052;-75
2022/04/19 05:23:33;;;;;;;12.88;4.13;;;;;;;14.94;67.19;99621.78;10176364;29;20040;-75
2022/04/19 05:28:34;;;;;;;14.43;3.92;;;;;;;15.57;66.39;99668.34;10174801;29;20500;-78
2022/04/19 05:33:35;;;;;;;13.32;3.83;;;;;;;15.53;65.56;99615.22;10174844;29;20606;-77
2022/04/19 05:38:35;;;;;;;12.45;3.72;;;;;;;16.38;64.94;99721.03;10158265;29;20436;-76
2022/04/19 05:43:37;;;;;;;18.48;4.35;;;;;;;16.39;64.15;99687.81;10154528;29;20408;-76
2022/04/19 05:48:38;;;;;;;14.73;4.85;;;;;;;15.16;64.72;99533.16;10174133;29;20044;-76
2022/04/19 05:53:39;;;;;;;13.57;4.40;;;;;;;16.51;64.64;99699.47;10174434;29;20067;-77
2022/04/19 05:58:40;;;;;;;12.68;4.47;;;;;;;16.72;63.52;99673.25;10175450;29;20534;-76
2022/04/19 06:09:00;;;;;;;16.20;4.63;;;;;;;17.31;62.85;99704.69;10166368;29;20134;-73
2022/04/19 06:14:01;;;;;;;15.15;4.60;;;;;;;16.68;62.06;99579.00;10171572;29;20139;-75
2022/04/19 06:19:02;;;;;;;11.30;4.10;;;;;;;17.26;61.56;99623.22;10132147;29;20044;-75
2022/04/19 06:24:05;;;;;;;22.20;4.43;;;;;;;18.02;61.33;99742.53;10168106;29;20043;-75
2022/04/19 06:29:06;;;;;;;9.82;3.97;;;;;;;17.14;60.75;99564.16;10174364;29;20138;-73
2022/04/19 06:34:08;;;;;;;17.67;4.70;;;;;;;17.67;60.81;99649.22;10172881;29;20546;-76
2022/04/19 06:39:08;;;;;;;18.75;4.45;;;;;;;18.46;60.23;99716.16;10156068;29;20055;-76
2022/04/19 06:44:09;;;;;;;13.48;4.57;;;;;;;18.48;59.31;99722.09;10171650;29;20415;-74
2022/04/19 06:49:12;;;;;;;18.20;4.85;;;;;;;18.15;60.15;99680.50;10172518;29;20039;-74
2022/04/19 06:54:13;;;;;;;15.13;4.30;;;;;;;18.27;59.12;99618.66;10170130;29;20055;-75
2022/04/19 06:59:13;;;;;;;17.90;4.50;;;;;;;18.63;58.32;99644.41;10171448;29;20519;-75
2022/04/19 07:04:14;;;;;;;11.82;5.07;;;;;;;18.69;57.57;99621.13;10172030;29;20075;-74
2022/04/19 07:09:15;;;;;;;17.17;5.22;;;;;;;18.69;57.32;99608.50;10173684;29;20167;-74
2022/04/19 07:14:16;;;;;;;19.40;5.18;;;;;;;19.31;57.29;99687.75;10153249;29;20051;-74
2022/04/19 07:19:17;;;;;;;14.27;4.35;;;;;;;19.61;56.44;99692.88;10170895;29;20051;-74
2022/04/19 07:26:37;;;;;;;20.85;4.95;;;;;;;18.77;56.71;99611.91;10171285;29;20474;-74
2022/04/19 07:29:48;;;;;;;14.40;4.85;;;;;;;18.88;56.17;99568.81;10169064;29;20044;-72
2022/04/19 07:34:49;;;;;;;12.40;5.03;;;;;;;18.78;55.43;99500.53;10171070;29;20040;-74
2022/04/19 07:39:50;;;;;;;18.92;4.82;;;;;;;18.89;56.46;99591.16;10161697;29;20423;-76
2022/04/19 07:44:51;;;;;;;13.48;4.78;;;;;;;19.77;56.18;99665.16;10151972;29;20043;-73
2022/04/19 07:49:56;;;;;;;13.35;5.07;;;;;;;19.44;54.99;99503.47;10170237;29;20096;-74
2022/04/19 07:54:57;;;;;;;13.27;4.93;;;;;;;19.39;54.66;99504.22;10168310;29;20453;-75
2022/04/19 07:59:58;;;;;;;14.85;4.60;;;;;;;19.55;54.88;99597.66;10170168;29;20096;-73
2022/04/19 08:04:58;;;;;;;16.58;4.70;;;;;;;19.12;55.26;99499.50;10175203;29;20500;-74
2022/04/19 08:10:00;;;;;;;16.08;4.60;;;;;;;19.88;54.88;99525.16;10179426;29;20048;-75
2022/04/19 08:15:01;;;;;;;14.57;4.68;;;;;;;19.99;54.15;99508.88;10177449;29;20139;-73
2022/04/19 08:20:03;;;;;;;16.73;4.82;;;;;;;21.03;54.78;99660.97;10177530;29;20048;-75
2022/04/19 08:25:06;;;;;;;13.60;4.43;;;;;;;20.58;55.57;99645.00;10160896;29;20044;-76
2022/04/19 08:30:08;;;;;;;15.18;4.57;;;;;;;19.71;55.14;99460.50;10162363;29;20412;-73
2022/04/19 08:35:09;;;;;;;17.45;4.78;;;;;;;21.14;54.91;99586.25;10179539;29;20047;-75
2022/04/19 08:40:11;;;;;;;13.63;4.72;;;;;;;21.65;54.90;99640.75;10178692;29;20624;-73
2022/04/19 08:45:15;;;;;;;18.60;5.03;;;;;;;20.85;56.40;99601.88;10178770;29;20051;-73
2022/04/19 08:50:18;;;;;;;;;;;;;;;21.05;57.51;99642.59;10179992;29;20523;-73
2022/04/19 09:00:38;;;;;;;17.92;4.45;;;;;;;22.08;55.01;99634.31;10178857;29;20555;-73
2022/04/19 09:05:52;;;;;;;14.35;4.68;;;;;;;21.82;54.36;99533.28;10160366;29;20139;-73
2022/04/19 09:11:05;;;;;;;42.03;6.20;;;;;;;21.97;54.62;99559.59;10178893;29;20036;-73
2022/04/19 09:16:07;;;;;;;15.57;4.22;;;;;;;22.38;54.91;99616.66;10178235;29;20400;-72
2022/04/19 09:21:07;;;;;;;19.83;4.15;;;;;;;21.95;54.04;99514.97;10177612;29;20047;-73
2022/04/19 09:26:09;;;;;;;15.30;4.25;;;;;;;22.24;53.35;99515.41;10177268;29;20156;-73
2022/04/19 09:31:13;;;;;;;23.30;4.25;;;;;;;22.90;52.74;99606.81;10171279;29;20500;-75
2022/04/19 09:36:25;;;;;;;11.65;4.13;;;;;;;22.10;50.64;99425.78;10172528;29;20488;-73
2022/04/19 09:41:30;;;;;;;16.17;4.68;;;;;;;22.82;51.71;99545.84;10173335;29;20036;-73
2022/04/19 09:46:31;;;;;;;12.07;4.50;;;;;;;23.34;51.50;99579.28;10174604;29;20043;-72
2022/04/19 09:51:34;;;;;;;13.38;4.07;;;;;;;23.49;51.23;99605.56;10174223;29;20419;-72
2022/04/19 09:56:38;;;;;;;17.00;3.88;;;;;;;22.53;50.40;99472.47;10172851;29;20131;-73
2022/04/19 10:12:17;;;;;;;17.55;4.75;;;;;;;22.66;51.78;99547.72;10170110;29;20067;-72
2022/04/19 10:17:18;;;;;;;16.42;3.92;;;;;;;21.88;51.77;99444.91;10175443;29;20052;-74
2022/04/19 10:22:20;;;;;;;13.95;4.30;;;;;;;21.73;51.96;99486.19;10175783;29;20048;-73
2022/04/19 10:27:30;;;;;;;16.50;4.00;;;;;;;22.28;51.56;99595.75;10174462;29;20048;-74
2022/04/19 10:32:35;;;;;;;22.63;5.63;;;;;;;21.61;51.99;99516.13;10175473;29;20507;-72
2022/04/19 10:37:35;;;;;;;10.70;3.47;;;;;;;21.89;51.97;99557.38;10174623;29;20048;-72
2022/04/19 10:42:38;;;;;;;10.85;3.67;;;;;;;21.88;51.91;99555.75;10174496;29;20040;-72
2022/04/19 10:47:54;;;;;;;18.30;3.80;;;;;;;22.18;51.37;99570.56;10174705;29;20048;-73
2022/04/19 10:52:59;;;;;;;19.40;4.18;;;;;;;21.91;51.51;99541.72;10174455;29;20063;-72
2022/04/19 10:58:16;;;;;;;11.07;4.03;;;;;;;21.89;51.84;99552.78;10174156;29;20060;-72
2022/04/19 11:03:18;;;;;;;16.02;4.75;;;;;;;21.95;51.54;99558.22;10173486;29;20051;-72
2022/04/19 11:08:26;;;;;;;10.67;3.97;;;;;;;21.42;51.88;99450.09;10171034;29;20062;-74
2022/04/19 11:13:37;;;;;;;8.93;3.30;;;;;;;21.16;51.87;99416.66;10123969;29;20051;-76
2022/04/19 11:18:39;;;;;;;17.55;3.72;;;;;;;21.54;51.85;99491.25;10135644;29;20048;-74
2022/04/19 11:23:48;;;;;;;13.13;3.22;;;;;;;21.28;51.75;99441.59;10135143;29;20107;-73
2022/04/19 11:29:09;;;;;;;18.25;3.75;;;;;;;21.49;51.46;99458.78;10143528;29;20119;-73
2022/04/19 11:34:11;;;;;;;13.02;3.22;;;;;;;21.41;51.60;99475.47;10133200;29;20056;-72
2022/04/19 11:50:00;;;;;;;12.43;3.72;;;;;;;22.14;51.00;99566.69;10173258;29;20511;-73
2022/04/19 11:55:01;;;;;;;18.92;3.00;;;;;;;22.49;50.63;99569.59;10154082;29;20052;-74
2022/04/19 12:00:04;;;;;;;13.05;3.38;;;;;;;22.75;50.06;99570.50;10143688;29;20048;-73
2022/04/19 12:05:06;;;;;;;;;;;;;;;23.34;46.95;99568.44;10134476;29;20048;-72
2022/04/19 12:10:08;;;;;;;15.52;4.00;;;;;;;23.29;47.75;99552.16;10133370;29;19919;-71
2022/04/19 12:15:09;;;;;;;10.60;3.72;;;;;;;22.59;47.38;99455.16;10133287;29;20093;-73
2022/04/19 12:20:10;;;;;;;15.23;3.95;;;;;;;22.52;47.32;99497.88;10128051;29;20219;-76
2022/04/19 12:25:22;;;;;;;16.50;3.53;;;;;;;21.96;46.29;99440.91;10127051;29;20048;-72
2022/04/19 12:30:28;;;;;;;7.78;2.90;;;;;;;21.45;47.46;99344.19;10126703;29;20497;-75
2022/04/19 12:35:34;;;;;;;22.20;3.50;;;;;;;22.98;46.73;99511.53;10112550;29;20051;-72
2022/04/19 12:40:35;;;;;;;17.48;4.15;;;;;;;22.65;47.08;99475.72;10151744;29;20567;-72
2022/04/19 12:45:39;;;;;;;14.88;3.50;;;;;;;21.98;46.80;99414.38;10190348;29;20059;-72
2022/04/19 12:50:40;;;;;;;14.98;3.38;;;;;;;21.98;47.08;99436.81;10157081;29;20044;-72
2022/04/19 12:55:41;;;;;;;13.18;3.13;;;;;;;22.01;47.34;99432.78;10179604;29;20427;-73
2022/04/19 13:00:42;;;;;;;12.43;3.03;;;;;;;22.40;47.62;99491.91;10179150;29;20054;-73
2022/04/19 13:16:21;;;;;;;16.90;4.88;;;;;;;22.06;48.38;99416.56;10139368;29;20127;-72
2022/04/19 13:21:24;;;;;;;13.85;3.63;;;;;;;21.72;48.71;99383.72;10139153;29;20520;-73
2022/04/19 13:26:25;;;;;;;17.07;4.27;;;;;;;22.04;48.87;99451.19;10138319;29;20051;-73
2022/04/19 13:31:26;;;;;;;12.82;3.60;;;;;;;22.23;49.38;99492.94;10138604;29;20389;-73
2022/04/19 13:36:27;;;;;;;14.60;3.70;;;;;;;21.11;49.47;99314.00;10138204;29;20047;-72
2022/04/19 13:41:27;;;;;;;19.25;4.15;;;;;;;22.00;49.68;99467.13;10137715;29;20493;-73
2022/04/19 13:46:28;;;;;;;22.88;4.97;;;;;;;21.49;49.91;99391.22;10138650;29;20080;-73
2022/04/19 13:51:29;;;;;;;15.80;5.00;;;;;;;21.91;50.14;99465.19;10138000;29;20217;-74
2022/04/19 13:56:30;;;;;;;17.65;3.70;;;;;;;21.79;49.96;99449.19;10137394;29;20060;-73
2022/04/19 14:01:31;;;;;;;18.02;3.80;;;;;;;21.48;49.87;99377.97;10137353;29;20135;-74
2022/04/19 14:06:38;;;;;;;15.43;4.28;;;;;;;21.61;49.51;99370.19;10137422;29;20377;-72
2022/04/19 14:11:39;;;;;;;16.77;4.75;;;;;;;22.34;49.00;99442.38;10136759;29;20093;-72
2022/04/19 14:16:40;;;;;;;19.90;5.60;;;;;;;22.36;48.36;99401.53;10137113;29;20048;-73
2022/04/19 14:21:41;;;;;;;17.75;6.55;;;;;;;22.74;48.22;99414.53;10136416;29;20040;-73
2022/04/19 14:26:41;;;;;;;21.67;5.72;;;;;;;22.60;48.21;99382.88;10120106;29;20127;-73
2022/04/19 14:37:01;;;;;;;17.17;3.55;;;;;;;22.45;48.82;99406.13;10175342;29;20048;-73
2022/04/19 14:42:03;;;;;;;17.25;3.45;;;;;;;22.29;49.05;99393.69;10175060;29;20448;-73
2022/04/19 14:47:04;;;;;;;17.88;4.68;;;;;;;21.41;49.19;99289.84;10174256;29;20044;-72
2022/04/19 14:52:24;;;;;;;21.00;4.72;;;;;;;21.84;49.39;99363.53;10174486;29;20138;-73
2022/04/19 14:57:25;;;;;;;14.68;4.43;;;;;;;21.83;49.81;99380.81;10174986;29;20079;-73
2022/04/19 15:02:26;;;;;;;13.13;4.22;;;;;;;21.67;50.61;99397.25;10174354;29;20044;-73
2022/04/19 15:07:27;;;;;;;66.78;9.02;;;;;;;21.20;51.68;99375.34;10174316;29;20044;-73
2022/04/19 15:12:28;;;;;;;100.80;9.98;;;;;;;20.94;52.69;99385.22;10173554;29;20063;-73
2022/04/19 15:17:29;;;;;;;18.17;3.97;;;;;;;20.12;53.14;99291.97;10174760;29;20507;-73
2022/04/19 15:22:30;;;;;;;32.30;8.15;;;;;;;20.22;54.15;99364.88;10170342;29;20135;-75
2022/04/19 15:27:31;;;;;;;28.08;11.82;;;;;;;20.39;55.29;99436.78;10167576;29;20920;-75
2022/04/19 15:32:32;;;;;;;20.85;8.90;;;;;;;19.52;56.10;99309.94;10166733;29;20068;-71
2022/04/19 15:37:33;;;;;;;22.80;5.80;;;;;;;19.42;56.88;99317.91;10164277;29;20044;-76
2022/04/19 15:42:35;;;;;;;38.70;7.18;;;;;;;19.80;58.06;99418.59;10168166;29;20416;-77
2022/04/19 15:47:36;;;;;;;42.28;10.63;;;;;;;19.52;59.19;99424.94;10166807;29;20051;-78
2022/04/19 15:52:37;;;;;;;18.50;6.65;;;;;;;19.12;59.89;99426.81;10165835;29;20063;-77
2022/04/19 15:57:37;;;;;;;15.93;5.25;;;;;;;17.55;60.45;99198.06;10165397;29;20496;-76
2022/04/19 16:02:38;;;;;;;23.02;8.15;;;;;;;18.57;61.34;99370.19;10169190;29;20515;-77
2022/04/19 16:07:39;;;;;;;20.35;6.60;;;;;;;18.37;62.31;99349.19;10171010;29;20047;-75
2022/04/19 16:12:45;;;;;;;58.38;9.02;;;;;;;17.54;62.77;99258.22;10171241;29;20511;-76
2022/04/19 16:23:24;;;;;;;37.33;17.00;;;;;;;18.12;64.12;99417.53;10177510;29;20048;-73
2022/04/19 16:28:30;;;;;;;68.90;24.23;;;;;;;17.59;66.46;99370.28;10178010;29;20511;-77
2022/04/19 16:33:31;;;;;;;32.28;16.17;;;;;;;17.51;66.01;99406.38;10173019;29;20131;-76
2022/04/19 16:38:31;;;;;;;35.88;13.10;;;;;;;17.54;67.00;99437.31;10179822;29;20401;-77
2022/04/19 16:43:33;;;;;;;57.67;17.42;;;;;;;17.26;67.34;99417.38;10176924;29;20040;-77
2022/04/19 16:48:34;;;;;;;34.38;12.90;;;;;;;17.22;68.58;99445.72;10177427;29;20070;-77
2022/04/19 16:53:35;;;;;;;28.77;9.10;;;;;;;17.03;69.23;99461.13;10188769;29;20060;-75
2022/04/19 16:58:36;;;;;;;21.42;8.10;;;;;;;16.07;69.79;99347.69;10177763;29;20059;-74
2022/04/19 17:03:57;;;;;;;25.63;7.22;;;;;;;16.39;71.00;99442.06;10150067;29;20053;-75
2022/04/19 17:08:59;;;;;;;29.20;6.20;;;;;;;16.37;70.79;99473.63;10160026;29;20056;-77
2022/04/19 17:14:00;;;;;;;12.00;4.63;;;;;;;16.29;70.81;99481.16;10178875;29;20072;-77
2022/04/19 17:19:01;;;;;;;354.30;133.45;;;;;;;15.99;71.51;99433.72;10177987;29;20393;-77
2022/04/19 17:24:04;;;;;;;94.57;30.80;;;;;;;15.88;72.58;99432.59;10177308;29;20099;-78
2022/04/19 17:29:05;;;;;;;131.63;44.70;;;;;;;15.83;72.92;99442.38;10178338;29;20040;-76
2022/04/19 17:34:06;;;;;;;135.65;45.25;;;;;;;15.66;73.27;99408.13;10177054;29;20044;-76
2022/04/19 17:39:06;;;;;;;422.95;158.45;;;;;;;15.64;73.01;99426.28;10176802;29;20040;-76
2022/04/19 17:44:07;;;;;;;180.10;70.38;;;;;;;15.58;73.30;99447.78;10176777;29;20051;-76
2022/04/19 17:49:09;;;;;;;85.93;28.83;;;;;;;14.88;73.86;99357.91;10175712;29;20060;-76
2022/04/19 17:59:29;;;;;;;44.80;14.40;;;;;;;15.15;74.41;99456.63;10176950;29;20054;-76
2022/04/19 18:04:31;;;;;;;27.67;8.65;;;;;;;14.68;75.00;99400.03;10175808;29;20047;-76
2022/04/19 18:09:32;;;;;;;27.58;6.95;;;;;;;14.91;75.43;99394.09;10159470;29;20115;-76
2022/04/19 18:14:34;;;;;;;37.15;6.20;;;;;;;14.35;75.68;99262.94;10175892;29;20068;-76
2022/04/19 18:19:34;;;;;;;23.38;5.22;;;;;;;14.61;74.98;99306.56;10176866;29;20665;-77
2022/04/19 18:29:54;;;;;;;21.35;5.28;;;;;;;15.24;74.59;99425.88;10175127;29;20043;-76
2022/04/19 18:34:55;;;;;;;20.70;5.07;;;;;;;14.93;74.95;99392.03;10175423;29;20059;-74
2022/04/19 18:39:56;;;;;;;24.90;5.47;;;;;;;15.12;75.13;99441.03;10174913;29;20384;-75
2022/04/19 18:44:58;;;;;;;22.00;5.22;;;;;;;15.13;75.41;99443.47;10175270;29;20087;-75
2022/04/19 18:49:58;;;;;;;30.70;6.65;;;;;;;13.93;75.24;99256.50;10173455;29;20135;-75
2022/04/19 18:54:59;;;;;;;22.63;5.53;;;;;;;14.30;75.19;99315.44;10174917;29;20147;-75
2022/04/19 19:00:01;;;;;;;22.25;5.35;;;;;;;14.87;75.13;99427.66;10174407;29;20044;-75
2022/04/19 19:05:06;;;;;;;22.58;5.13;;;;;;;13.65;75.16;99267.59;10173961;29;20054;-78
2022/04/19 19:10:08;;;;;;;20.65;5.05;;;;;;;14.06;75.23;99352.56;10174345;29;20132;-75
2022/04/19 19:15:09;;;;;;;18.98;5.43;;;;;;;14.72;75.28;99441.34;10174007;29;20051;-75
2022/04/19 19:20:10;;;;;;;19.35;4.97;;;;;;;14.11;75.27;99360.72;10161897;29;20040;-75
2022/04/19 19:25:11;;;;;;;18.38;4.70;;;;;;;14.23;75.13;99384.91;10153093;29;20397;-75
2022/04/19 19:30:12;;;;;;;20.60;5.13;;;;;;;14.56;75.25;99442.69;10174558;29;20040;-74
2022/04/19 19:35:13;;;;;;;22.08;5.00;;;;;;;14.10;75.23;99409.84;10174505;29;20040;-76
2022/04/19 19:40:14;;;;;;;25.00;5.97;;;;;;;14.22;75.76;99438.56;10159192;29;20048;-74
2022/04/19 19:45:15;;;;;;;16.27;4.60;;;;;;;13.84;75.79;99393.94;10134479;29;20097;-74
2022/04/19 19:50:18;;;;;;;22.85;5.57;;;;;;;13.96;75.81;99450.16;10134377;29;20048;-75
2022/04/19 19:55:19;;;;;;;18.15;4.82;;;;;;;14.04;76.08;99457.94;10134452;29;20053;-75
2022/04/19 20:00:19;;;;;;;15.50;5.30;;;;;;;13.13;76.24;99328.09;10136164;29;20049;-75
2022/04/19 20:05:20;;;;;;;14.52;4.22;;;;;;;13.85;76.42;99435.63;10142003;29;20465;-75
2022/04/19 20:10:21;;;;;;;21.45;5.20;;;;;;;13.36;76.34;99368.47;10141745;29;20484;-75
2022/04/19 20:15:23;;;;;;;19.25;4.63;;;;;;;13.49;76.82;99383.63;10124455;29;20127;-75
2022/04/19 20:20:24;;;;;;;37.60;8.98;;;;;;;13.33;76.83;99358.22;10140938;29;20555;-75
2022/04/19 20:25:25;;;;;;;19.63;5.18;;;;;;;13.62;76.93;99420.13;10140534;29;20107;-75
2022/04/19 20:30:26;;;;;;;16.10;4.30;;;;;;;13.67;77.14;99422.94;10140551;29;20044;-75
2022/04/19 20:35:27;;;;;;;9.70;4.00;;;;;;;13.05;76.99;99337.13;10141353;29;20040;-75
2022/04/19 20:40:28;;;;;;;22.42;5.10;;;;;;;12.76;77.57;99293.09;10140725;29;20047;-75
2022/04/19 20:45:29;;;;;;;17.77;4.75;;;;;;;13.40;77.89;99422.22;10140514;29;20139;-76
2022/04/19 20:50:38;;;;;;;20.67;9.75;;;;;;;12.59;79.21;99339.84;10139713;29;20052;-75
2022/04/19 20:55:38;;;;;;;22.38;8.20;;;;;;;12.82;78.53;99398.06;10140465;29;20389;-75
2022/04/19 21:00:43;;;;;;;35.35;13.88;;;;;;;12.21;79.04;99309.34;10172836;29;20044;-76
2022/04/19 21:05:44;;;;;;;24.60;10.75;;;;;;;12.84;79.57;99446.66;10178995;29;20488;-76
2022/04/19 21:10:47;;;;;;;24.60;8.30;;;;;;;12.52;79.73;99411.78;10177680;29;20107;-76
2022/04/19 21:15:48;;;;;;;21.77;6.95;;;;;;;12.70;79.95;99420.00;10177740;29;20123;-76
2022/04/19 21:20:51;;;;;;;27.88;8.68;;;;;;;12.69;79.85;99404.22;10178404;29;20478;-77
2022/04/19 21:25:51;;;;;;;27.38;9.45;;;;;;;12.87;80.00;99432.94;10178313;29;20099;-75
2022/04/19 21:30:52;;;;;;;19.15;8.50;;;;;;;12.73;80.29;99443.56;10177844;29;20048;-75
2022/04/19 21:35:53;;;;;;;27.08;8.18;;;;;;;11.79;80.39;99321.94;10176984;29;20052;-75
2022/04/19 21:40:54;;;;;;;19.17;6.32;;;;;;;12.62;80.49;99468.16;10176931;29;20048;-75
2022/04/19 21:45:56;;;;;;;20.90;5.10;;;;;;;12.25;80.44;99384.28;10176960;29;20036;-75
2022/04/19 21:50:57;;;;;;;21.92;6.90;;;;;;;12.31;81.24;99416.25;10176506;29;20048;-75
2022/04/19 21:55:58;;;;;;;19.48;7.00;;;;;;;12.41;81.91;99439.00;10176319;29;20479;-75
2022/04/19 22:01:04;;;;;;;26.88;8.68;;;;;;;12.36;82.35;99433.50;10177021;29;20085;-75
2022/04/19 22:06:05;;;;;;;26.35;8.45;;;;;;;12.33;81.63;99400.91;10176759;29;20044;-75
2022/04/19 22:11:06;;;;;;;23.10;8.80;;;;;;;12.17;82.43;99401.25;10176257;29;20052;-75
2022/04/19 22:16:07;;;;;;;33.10;12.57;;;;;;;12.06;83.21;99410.69;10175755;29;20127;-75
2022/04/19 22:21:08;;;;;;;23.88;9.98;;;;;;;11.51;83.05;99315.88;10176104;29;20538;-75
2022/04/19 22:26:09;;;;;;;40.95;13.68;;;;;;;11.94;83.03;99379.53;10175986;29;20124;-75
2022/04/19 22:31:10;;;;;;;39.33;16.90;;;;;;;11.87;83.55;99414.88;10176381;29;20055;-75
2022/04/19 22:36:11;;;;;;;29.42;12.48;;;;;;;11.35;83.54;99360.41;10174839;29;20036;-75
2022/04/19 22:41:12;;;;;;;51.10;22.92;;;;;;;11.58;84.20;99417.81;10175112;29;20403;-75
2022/04/19 22:46:13;;;;;;;40.22;19.65;;;;;;;10.51;83.75;99233.84;10174553;29;20044;-75
2022/04/19 22:51:14;;;;;;;40.20;16.98;;;;;;;11.49;83.60;99369.28;10174438;29;20127;-75
2022/04/19 22:56:15;;;;;;;40.30;19.50;;;;;;;11.58;84.40;99400.03;10175000;29;20142;-76
2022/04/19 23:01:15;;;;;;;40.85;17.85;;;;;;;11.04;85.11;99312.19;10174006;29;20098;-75
2022/04/19 23:06:16;;;;;;;42.40;18.70;;;;;;;11.33;85.19;99357.13;10174220;29;20075;-75
2022/04/19 23:11:17;;;;;;;43.42;19.50;;;;;;;10.88;85.24;99263.66;10174128;29;20527;-75
2022/04/19 23:16:18;;;;;;;45.05;17.10;;;;;;;11.57;85.74;99371.75;10174539;29;20071;-75
2022/04/19 23:21:18;;;;;;;28.50;13.02;;;;;;;11.64;86.07;99395.75;10173764;29;20067;-75
2022/04/19 23:31:38;;;;;;;28.20;9.70;;;;;;;11.45;87.08;99376.00;10173003;29;20044;-75
2022/04/19 23:36:39;;;;;;;20.10;7.72;;;;;;;11.22;87.31;99347.06;10172588;29;20048;-75
2022/04/19 23:41:40;;;;;;;17.27;5.63;;;;;;;11.42;87.52;99371.09;10173393;29;20048;-76
2022/04/19 23:46:41;;;;;;;15.65;6.85;;;;;;;10.44;87.98;99222.38;10172853;29;20040;-75
2022/04/19 23:51:41;;;;;;;23.23;7.10;;;;;;;11.13;88.35;99335.78;10172579;29;20032;-75
2022/04/19 23:56:42;;;;;;;17.92;7.00;;;;;;;10.99;88.46;99301.34;10173396;29;20060;-75
